sensor_id;sensor_type;location;lat;lon;timestamp;temperature;humidity
24678;DHT22;12800;53.094;8.778;2022-12-20T00:01:09;8.50;90.20
24678;DHT22;12800;53.094;8.778;2022-12-20T00:03:35;8.50;90.10
24678;DHT22;12800;53.094;8.778;2022-12-20T00:06:01;8.50;90.20
24678;DHT22;12800;53.094;8.778;2022-12-20T00:08:27;8.50;90.10
24678;DHT22;12800;53.094;8.778;2022-12-20T00:10:53;8.50;90.10
24678;DHT22;12800;53.094;8.778;2022-12-20T00:13:18;8.50;90.00
24678;DHT22;12800;53.094;8.778;2022-12-20T00:15:44;8.50;90.00
24678;DHT22;12800;53.094;8.778;2022-12-20T00:18:10;8.50;90.10
24678;DHT22;12800;53.094;8.778;2022-12-20T00:20:35;8.50;90.10
24678;DHT22;12800;53.094;8.778;2022-12-20T00:23:01;8.50;90.20
24678;DHT22;12800;53.094;8.778;2022-12-20T00:25:27;8.50;90.20
24678;DHT22;12800;53.094;8.778;2022-12-20T00:27:53;8.60;90.30
24678;DHT22;12800;53.094;8.778;2022-12-20T00:30:19;8.60;90.40
24678;DHT22;12800;53.094;8.778;2022-12-20T00:32:44;8.70;90.40
24678;DHT22;12800;53.094;8.778;2022-12-20T00:35:11;8.70;90.40
24678;DHT22;12800;53.094;8.778;2022-12-20T00:37:36;8.80;90.50
24678;DHT22;12800;53.094;8.778;2022-12-20T00:40:04;8.80;90.30
24678;DHT22;12800;53.094;8.778;2022-12-20T00:42:30;8.80;90.30
24678;DHT22;12800;53.094;8.778;2022-12-20T00:44:56;8.90;90.30
24678;DHT22;12800;53.094;8.778;2022-12-20T00:47:22;8.90;90.30
24678;DHT22;12800;53.094;8.778;2022-12-20T00:49:47;8.90;90.30
24678;DHT22;12800;53.094;8.778;2022-12-20T00:52:13;9.00;90.40
24678;DHT22;12800;53.094;8.778;2022-12-20T00:54:38;9.00;90.20
24678;DHT22;12800;53.094;8.778;2022-12-20T00:57:04;9.00;90.30
24678;DHT22;12800;53.094;8.778;2022-12-20T00:59:29;9.00;90.20
24678;DHT22;12800;53.094;8.778;2022-12-20T01:01:55;9.10;90.20
24678;DHT22;12800;53.094;8.778;2022-12-20T01:04:21;9.10;90.30
24678;DHT22;12800;53.094;8.778;2022-12-20T01:06:46;9.10;90.30
24678;DHT22;12800;53.094;8.778;2022-12-20T01:09:12;9.10;90.20
24678;DHT22;12800;53.094;8.778;2022-12-20T01:11:37;9.10;90.20
24678;DHT22;12800;53.094;8.778;2022-12-20T01:14:10;9.10;90.20
24678;DHT22;12800;53.094;8.778;2022-12-20T01:16:47;9.10;90.20
24678;DHT22;12800;53.094;8.778;2022-12-20T01:19:14;9.20;90.20
24678;DHT22;12800;53.094;8.778;2022-12-20T01:21:41;9.10;90.10
24678;DHT22;12800;53.094;8.778;2022-12-20T01:24:13;9.10;90.20
24678;DHT22;12800;53.094;8.778;2022-12-20T01:26:39;9.20;90.70
24678;DHT22;12800;53.094;8.778;2022-12-20T01:29:05;9.20;90.30
24678;DHT22;12800;53.094;8.778;2022-12-20T01:31:31;9.20;90.30
24678;DHT22;12800;53.094;8.778;2022-12-20T01:33:57;9.20;90.30
24678;DHT22;12800;53.094;8.778;2022-12-20T01:36:25;9.20;90.30
24678;DHT22;12800;53.094;8.778;2022-12-20T01:38:59;9.20;90.30
24678;DHT22;12800;53.094;8.778;2022-12-20T01:41:26;9.20;90.40
24678;DHT22;12800;53.094;8.778;2022-12-20T01:43:55;9.20;90.40
24678;DHT22;12800;53.094;8.778;2022-12-20T01:46:23;9.30;90.40
24678;DHT22;12800;53.094;8.778;2022-12-20T01:51:33;9.30;90.30
24678;DHT22;12800;53.094;8.778;2022-12-20T01:54:26;9.30;90.40
24678;DHT22;12800;53.094;8.778;2022-12-20T01:56:58;9.30;90.40
24678;DHT22;12800;53.094;8.778;2022-12-20T01:59:26;9.30;90.40
24678;DHT22;12800;53.094;8.778;2022-12-20T02:01:56;9.30;90.40
24678;DHT22;12800;53.094;8.778;2022-12-20T02:04:22;9.30;90.40
24678;DHT22;12800;53.094;8.778;2022-12-20T02:06:48;9.30;90.40
24678;DHT22;12800;53.094;8.778;2022-12-20T02:09:14;9.30;90.40
24678;DHT22;12800;53.094;8.778;2022-12-20T02:15:11;9.30;90.40
24678;DHT22;12800;53.094;8.778;2022-12-20T02:17:44;9.30;90.40
24678;DHT22;12800;53.094;8.778;2022-12-20T02:23:24;9.30;90.40
24678;DHT22;12800;53.094;8.778;2022-12-20T02:26:17;9.20;90.40
24678;DHT22;12800;53.094;8.778;2022-12-20T02:32:13;9.20;90.40
24678;DHT22;12800;53.094;8.778;2022-12-20T02:34:41;9.20;90.40
24678;DHT22;12800;53.094;8.778;2022-12-20T02:37:08;9.20;90.40
24678;DHT22;12800;53.094;8.778;2022-12-20T02:39:37;9.10;90.40
24678;DHT22;12800;53.094;8.778;2022-12-20T02:42:06;9.20;90.50
24678;DHT22;12800;53.094;8.778;2022-12-20T02:44:37;9.20;90.50
24678;DHT22;12800;53.094;8.778;2022-12-20T02:47:35;9.20;90.60
24678;DHT22;12800;53.094;8.778;2022-12-20T02:50:06;9.10;90.50
24678;DHT22;12800;53.094;8.778;2022-12-20T02:52:33;9.20;90.50
24678;DHT22;12800;53.094;8.778;2022-12-20T02:54:59;9.10;90.60
24678;DHT22;12800;53.094;8.778;2022-12-20T02:57:31;9.10;90.70
24678;DHT22;12800;53.094;8.778;2022-12-20T03:00:14;9.20;90.80
24678;DHT22;12800;53.094;8.778;2022-12-20T03:02:42;9.20;90.80
24678;DHT22;12800;53.094;8.778;2022-12-20T03:05:27;9.20;90.80
24678;DHT22;12800;53.094;8.778;2022-12-20T03:07:54;9.20;90.80
24678;DHT22;12800;53.094;8.778;2022-12-20T03:10:20;9.20;90.80
24678;DHT22;12800;53.094;8.778;2022-12-20T03:12:46;9.30;90.80
24678;DHT22;12800;53.094;8.778;2022-12-20T03:15:12;9.30;90.80
24678;DHT22;12800;53.094;8.778;2022-12-20T03:17:38;9.30;90.80
24678;DHT22;12800;53.094;8.778;2022-12-20T03:20:05;9.30;90.80
24678;DHT22;12800;53.094;8.778;2022-12-20T03:22:32;9.30;90.80
24678;DHT22;12800;53.094;8.778;2022-12-20T03:24:58;9.40;90.80
24678;DHT22;12800;53.094;8.778;2022-12-20T03:27:24;9.40;90.90
24678;DHT22;12800;53.094;8.778;2022-12-20T03:29:51;9.40;90.70
24678;DHT22;12800;53.094;8.778;2022-12-20T03:32:17;9.40;90.70
24678;DHT22;12800;53.094;8.778;2022-12-20T03:34:42;9.40;90.70
24678;DHT22;12800;53.094;8.778;2022-12-20T03:37:09;9.40;90.70
24678;DHT22;12800;53.094;8.778;2022-12-20T03:39:34;9.50;90.80
24678;DHT22;12800;53.094;8.778;2022-12-20T03:42:00;9.50;90.70
24678;DHT22;12800;53.094;8.778;2022-12-20T03:44:25;9.50;90.70
24678;DHT22;12800;53.094;8.778;2022-12-20T03:46:51;9.50;90.70
24678;DHT22;12800;53.094;8.778;2022-12-20T03:49:17;9.50;90.60
24678;DHT22;12800;53.094;8.778;2022-12-20T03:51:43;9.50;90.50
24678;DHT22;12800;53.094;8.778;2022-12-20T03:54:08;9.50;90.60
24678;DHT22;12800;53.094;8.778;2022-12-20T03:56:34;9.50;90.60
24678;DHT22;12800;53.094;8.778;2022-12-20T03:59:00;9.50;90.60
24678;DHT22;12800;53.094;8.778;2022-12-20T04:01:27;9.60;90.70
24678;DHT22;12800;53.094;8.778;2022-12-20T04:03:53;9.60;90.60
24678;DHT22;12800;53.094;8.778;2022-12-20T04:06:20;9.60;90.70
24678;DHT22;12800;53.094;8.778;2022-12-20T04:08:46;9.60;90.70
24678;DHT22;12800;53.094;8.778;2022-12-20T04:11:12;9.60;90.60
24678;DHT22;12800;53.094;8.778;2022-12-20T04:13:46;9.70;90.60
24678;DHT22;12800;53.094;8.778;2022-12-20T04:16:13;9.60;90.60
24678;DHT22;12800;53.094;8.778;2022-12-20T04:18:39;9.70;90.60
24678;DHT22;12800;53.094;8.778;2022-12-20T04:21:05;9.70;90.60
24678;DHT22;12800;53.094;8.778;2022-12-20T04:23:32;9.70;90.60
24678;DHT22;12800;53.094;8.778;2022-12-20T04:25:59;9.70;90.50
24678;DHT22;12800;53.094;8.778;2022-12-20T04:28:24;9.70;90.60
24678;DHT22;12800;53.094;8.778;2022-12-20T04:30:50;9.70;90.60
24678;DHT22;12800;53.094;8.778;2022-12-20T04:33:17;9.70;90.60
24678;DHT22;12800;53.094;8.778;2022-12-20T04:35:42;9.70;90.70
24678;DHT22;12800;53.094;8.778;2022-12-20T04:38:08;9.70;90.70
24678;DHT22;12800;53.094;8.778;2022-12-20T04:40:33;9.70;90.70
24678;DHT22;12800;53.094;8.778;2022-12-20T04:42:59;9.70;90.70
24678;DHT22;12800;53.094;8.778;2022-12-20T04:45:24;9.70;90.70
24678;DHT22;12800;53.094;8.778;2022-12-20T04:47:50;9.70;90.70
24678;DHT22;12800;53.094;8.778;2022-12-20T04:50:16;9.70;90.80
24678;DHT22;12800;53.094;8.778;2022-12-20T04:52:44;9.70;90.90
24678;DHT22;12800;53.094;8.778;2022-12-20T04:55:28;9.70;90.90
24678;DHT22;12800;53.094;8.778;2022-12-20T04:57:54;9.70;90.90
24678;DHT22;12800;53.094;8.778;2022-12-20T05:00:19;9.70;91.00
24678;DHT22;12800;53.094;8.778;2022-12-20T05:02:45;9.70;91.00
24678;DHT22;12800;53.094;8.778;2022-12-20T05:05:11;9.70;91.00
24678;DHT22;12800;53.094;8.778;2022-12-20T05:07:36;9.80;91.00
24678;DHT22;12800;53.094;8.778;2022-12-20T05:10:03;9.80;91.30
24678;DHT22;12800;53.094;8.778;2022-12-20T05:12:28;9.80;90.90
24678;DHT22;12800;53.094;8.778;2022-12-20T05:14:54;9.80;91.00
24678;DHT22;12800;53.094;8.778;2022-12-20T05:17:19;9.80;91.10
24678;DHT22;12800;53.094;8.778;2022-12-20T05:19:45;9.80;91.10
24678;DHT22;12800;53.094;8.778;2022-12-20T05:22:11;9.80;91.20
24678;DHT22;12800;53.094;8.778;2022-12-20T05:24:55;9.80;91.20
24678;DHT22;12800;53.094;8.778;2022-12-20T05:27:39;9.80;91.30
24678;DHT22;12800;53.094;8.778;2022-12-20T05:30:05;9.80;91.40
24678;DHT22;12800;53.094;8.778;2022-12-20T05:32:31;9.80;91.50
24678;DHT22;12800;53.094;8.778;2022-12-20T05:34:56;9.80;91.60
24678;DHT22;12800;53.094;8.778;2022-12-20T05:37:22;9.80;91.70
24678;DHT22;12800;53.094;8.778;2022-12-20T05:39:48;9.80;91.70
24678;DHT22;12800;53.094;8.778;2022-12-20T05:42:14;9.90;91.90
24678;DHT22;12800;53.094;8.778;2022-12-20T05:44:40;9.90;92.00
24678;DHT22;12800;53.094;8.778;2022-12-20T05:47:06;9.90;92.10
24678;DHT22;12800;53.094;8.778;2022-12-20T05:49:31;9.90;92.10
24678;DHT22;12800;53.094;8.778;2022-12-20T05:51:57;9.90;92.10
24678;DHT22;12800;53.094;8.778;2022-12-20T05:54:22;9.90;92.20
24678;DHT22;12800;53.094;8.778;2022-12-20T05:56:49;9.90;92.20
24678;DHT22;12800;53.094;8.778;2022-12-20T05:59:15;9.90;92.20
24678;DHT22;12800;53.094;8.778;2022-12-20T06:01:42;9.90;92.20
24678;DHT22;12800;53.094;8.778;2022-12-20T06:04:07;9.90;92.20
24678;DHT22;12800;53.094;8.778;2022-12-20T06:06:33;9.90;92.30
24678;DHT22;12800;53.094;8.778;2022-12-20T06:08:59;9.90;92.30
24678;DHT22;12800;53.094;8.778;2022-12-20T06:11:25;9.90;92.30
24678;DHT22;12800;53.094;8.778;2022-12-20T06:13:51;9.90;92.40
24678;DHT22;12800;53.094;8.778;2022-12-20T06:16:17;9.90;92.40
24678;DHT22;12800;53.094;8.778;2022-12-20T06:18:45;9.90;92.50
24678;DHT22;12800;53.094;8.778;2022-12-20T06:21:10;9.90;92.60
24678;DHT22;12800;53.094;8.778;2022-12-20T06:23:36;9.90;92.60
24678;DHT22;12800;53.094;8.778;2022-12-20T06:26:01;9.90;92.70
24678;DHT22;12800;53.094;8.778;2022-12-20T06:28:29;9.90;93.00
24678;DHT22;12800;53.094;8.778;2022-12-20T06:30:56;9.90;93.00
24678;DHT22;12800;53.094;8.778;2022-12-20T06:33:22;9.90;92.80
24678;DHT22;12800;53.094;8.778;2022-12-20T06:35:49;9.90;92.80
24678;DHT22;12800;53.094;8.778;2022-12-20T06:38:15;9.90;92.70
24678;DHT22;12800;53.094;8.778;2022-12-20T06:40:40;9.90;92.80
24678;DHT22;12800;53.094;8.778;2022-12-20T06:43:06;9.90;92.80
24678;DHT22;12800;53.094;8.778;2022-12-20T06:45:32;9.90;92.80
24678;DHT22;12800;53.094;8.778;2022-12-20T06:47:57;9.90;93.20
24678;DHT22;12800;53.094;8.778;2022-12-20T06:50:23;9.90;92.80
24678;DHT22;12800;53.094;8.778;2022-12-20T06:52:49;9.90;92.80
24678;DHT22;12800;53.094;8.778;2022-12-20T06:55:15;9.90;92.80
24678;DHT22;12800;53.094;8.778;2022-12-20T06:57:40;9.90;92.70
24678;DHT22;12800;53.094;8.778;2022-12-20T07:00:07;9.90;92.70
24678;DHT22;12800;53.094;8.778;2022-12-20T07:02:35;9.90;92.70
24678;DHT22;12800;53.094;8.778;2022-12-20T07:05:00;9.90;92.70
24678;DHT22;12800;53.094;8.778;2022-12-20T07:07:26;9.90;92.70
24678;DHT22;12800;53.094;8.778;2022-12-20T07:09:51;9.90;92.70
24678;DHT22;12800;53.094;8.778;2022-12-20T07:12:17;9.90;92.60
24678;DHT22;12800;53.094;8.778;2022-12-20T07:14:43;9.90;92.60
24678;DHT22;12800;53.094;8.778;2022-12-20T07:17:09;9.90;92.90
24678;DHT22;12800;53.094;8.778;2022-12-20T07:19:35;9.80;92.50
24678;DHT22;12800;53.094;8.778;2022-12-20T07:22:01;9.80;92.60
24678;DHT22;12800;53.094;8.778;2022-12-20T07:24:28;9.80;92.50
24678;DHT22;12800;53.094;8.778;2022-12-20T07:26:53;9.80;92.40
24678;DHT22;12800;53.094;8.778;2022-12-20T07:29:19;9.80;92.40
24678;DHT22;12800;53.094;8.778;2022-12-20T07:31:44;9.80;92.40
24678;DHT22;12800;53.094;8.778;2022-12-20T07:34:10;9.80;92.40
24678;DHT22;12800;53.094;8.778;2022-12-20T07:36:36;9.80;92.30
24678;DHT22;12800;53.094;8.778;2022-12-20T07:39:01;9.80;92.30
24678;DHT22;12800;53.094;8.778;2022-12-20T07:41:27;9.80;92.30
24678;DHT22;12800;53.094;8.778;2022-12-20T07:43:53;9.80;92.30
24678;DHT22;12800;53.094;8.778;2022-12-20T07:46:18;9.80;92.30
24678;DHT22;12800;53.094;8.778;2022-12-20T07:48:44;9.80;92.30
24678;DHT22;12800;53.094;8.778;2022-12-20T07:51:15;9.80;92.30
24678;DHT22;12800;53.094;8.778;2022-12-20T07:53:53;9.90;92.40
24678;DHT22;12800;53.094;8.778;2022-12-20T07:56:21;9.90;92.30
24678;DHT22;12800;53.094;8.778;2022-12-20T07:58:50;9.90;92.30
24678;DHT22;12800;53.094;8.778;2022-12-20T08:01:18;9.90;92.30
24678;DHT22;12800;53.094;8.778;2022-12-20T08:03:51;10.00;92.30
24678;DHT22;12800;53.094;8.778;2022-12-20T08:06:19;10.00;92.30
24678;DHT22;12800;53.094;8.778;2022-12-20T08:08:48;10.00;92.20
24678;DHT22;12800;53.094;8.778;2022-12-20T08:11:16;10.00;92.50
24678;DHT22;12800;53.094;8.778;2022-12-20T08:13:42;10.00;92.20
24678;DHT22;12800;53.094;8.778;2022-12-20T08:16:08;10.10;92.20
24678;DHT22;12800;53.094;8.778;2022-12-20T08:18:34;10.10;92.10
24678;DHT22;12800;53.094;8.778;2022-12-20T08:20:59;10.10;92.20
24678;DHT22;12800;53.094;8.778;2022-12-20T08:23:25;10.10;92.20
24678;DHT22;12800;53.094;8.778;2022-12-20T08:25:51;10.20;92.10
24678;DHT22;12800;53.094;8.778;2022-12-20T08:28:16;10.30;92.10
24678;DHT22;12800;53.094;8.778;2022-12-20T08:30:42;10.30;92.00
24678;DHT22;12800;53.094;8.778;2022-12-20T08:33:08;10.30;92.00
24678;DHT22;12800;53.094;8.778;2022-12-20T08:35:33;10.30;91.90
24678;DHT22;12800;53.094;8.778;2022-12-20T08:37:59;10.30;92.00
24678;DHT22;12800;53.094;8.778;2022-12-20T08:40:25;10.40;92.00
24678;DHT22;12800;53.094;8.778;2022-12-20T08:42:51;10.40;92.00
24678;DHT22;12800;53.094;8.778;2022-12-20T08:45:16;10.40;92.00
24678;DHT22;12800;53.094;8.778;2022-12-20T08:47:43;10.40;92.00
24678;DHT22;12800;53.094;8.778;2022-12-20T08:50:09;10.50;91.90
24678;DHT22;12800;53.094;8.778;2022-12-20T08:52:35;10.50;91.90
24678;DHT22;12800;53.094;8.778;2022-12-20T08:55:01;10.60;91.90
24678;DHT22;12800;53.094;8.778;2022-12-20T08:57:26;10.50;91.80
24678;DHT22;12800;53.094;8.778;2022-12-20T08:59:52;10.60;91.80
24678;DHT22;12800;53.094;8.778;2022-12-20T09:02:17;10.60;91.90
24678;DHT22;12800;53.094;8.778;2022-12-20T09:04:43;10.70;92.00
24678;DHT22;12800;53.094;8.778;2022-12-20T09:07:09;10.70;91.90
24678;DHT22;12800;53.094;8.778;2022-12-20T09:09:35;10.70;92.10
24678;DHT22;12800;53.094;8.778;2022-12-20T09:12:00;10.80;91.90
24678;DHT22;12800;53.094;8.778;2022-12-20T09:14:26;10.80;91.90
24678;DHT22;12800;53.094;8.778;2022-12-20T09:16:52;10.90;91.90
24678;DHT22;12800;53.094;8.778;2022-12-20T09:19:17;10.90;91.80
24678;DHT22;12800;53.094;8.778;2022-12-20T09:21:43;10.90;91.70
24678;DHT22;12800;53.094;8.778;2022-12-20T09:24:08;10.90;91.60
24678;DHT22;12800;53.094;8.778;2022-12-20T09:26:34;11.00;91.60
24678;DHT22;12800;53.094;8.778;2022-12-20T09:29:00;11.00;91.60
24678;DHT22;12800;53.094;8.778;2022-12-20T09:31:26;11.00;91.50
24678;DHT22;12800;53.094;8.778;2022-12-20T09:33:54;11.10;91.50
24678;DHT22;12800;53.094;8.778;2022-12-20T09:36:21;11.10;91.50
24678;DHT22;12800;53.094;8.778;2022-12-20T09:38:47;11.10;91.80
24678;DHT22;12800;53.094;8.778;2022-12-20T09:41:40;11.20;91.30
24678;DHT22;12800;53.094;8.778;2022-12-20T09:46:39;11.30;91.20
24678;DHT22;12800;53.094;8.778;2022-12-20T09:49:07;11.30;91.10
24678;DHT22;12800;53.094;8.778;2022-12-20T09:56:44;11.30;90.90
24678;DHT22;12800;53.094;8.778;2022-12-20T09:59:21;11.30;90.80
24678;DHT22;12800;53.094;8.778;2022-12-20T10:01:48;11.30;90.80
24678;DHT22;12800;53.094;8.778;2022-12-20T10:04:21;11.30;90.80
24678;DHT22;12800;53.094;8.778;2022-12-20T10:15:27;11.40;90.70
24678;DHT22;12800;53.094;8.778;2022-12-20T10:18:13;11.40;90.60
24678;DHT22;12800;53.094;8.778;2022-12-20T10:23:42;11.40;90.50
24678;DHT22;12800;53.094;8.778;2022-12-20T10:26:11;11.40;90.50
24678;DHT22;12800;53.094;8.778;2022-12-20T10:28:37;11.50;90.50
24678;DHT22;12800;53.094;8.778;2022-12-20T10:31:06;11.50;90.30
24678;DHT22;12800;53.094;8.778;2022-12-20T10:33:33;11.50;90.30
24678;DHT22;12800;53.094;8.778;2022-12-20T10:38:45;11.60;90.20
24678;DHT22;12800;53.094;8.778;2022-12-20T10:41:18;11.70;90.10
24678;DHT22;12800;53.094;8.778;2022-12-20T10:43:52;11.70;90.10
24678;DHT22;12800;53.094;8.778;2022-12-20T10:46:19;11.80;90.10
24678;DHT22;12800;53.094;8.778;2022-12-20T10:48:47;11.80;89.80
24678;DHT22;12800;53.094;8.778;2022-12-20T10:51:15;11.80;89.60
24678;DHT22;12800;53.094;8.778;2022-12-20T10:54:00;11.90;89.40
24678;DHT22;12800;53.094;8.778;2022-12-20T10:59:33;11.90;89.10
24678;DHT22;12800;53.094;8.778;2022-12-20T11:02:07;11.90;88.80
24678;DHT22;12800;53.094;8.778;2022-12-20T11:05:15;11.90;88.60
24678;DHT22;12800;53.094;8.778;2022-12-20T11:07:59;12.00;88.60
24678;DHT22;12800;53.094;8.778;2022-12-20T11:10:27;12.00;88.50
24678;DHT22;12800;53.094;8.778;2022-12-20T11:12:58;12.00;88.40
24678;DHT22;12800;53.094;8.778;2022-12-20T11:15:33;12.00;88.30
24678;DHT22;12800;53.094;8.778;2022-12-20T11:18:14;12.10;88.20
24678;DHT22;12800;53.094;8.778;2022-12-20T11:20:46;12.10;88.10
24678;DHT22;12800;53.094;8.778;2022-12-20T11:26:02;12.10;88.00
24678;DHT22;12800;53.094;8.778;2022-12-20T11:29:16;12.00;87.60
24678;DHT22;12800;53.094;8.778;2022-12-20T11:34:27;11.90;87.50
24678;DHT22;12800;53.094;8.778;2022-12-20T11:37:23;11.90;87.60
24678;DHT22;12800;53.094;8.778;2022-12-20T11:45:29;11.80;88.00
24678;DHT22;12800;53.094;8.778;2022-12-20T11:53:36;11.70;88.20
24678;DHT22;12800;53.094;8.778;2022-12-20T11:56:25;11.60;88.40
24678;DHT22;12800;53.094;8.778;2022-12-20T11:59:03;11.60;88.70
24678;DHT22;12800;53.094;8.778;2022-12-20T12:01:59;11.60;88.90
24678;DHT22;12800;53.094;8.778;2022-12-20T12:04:32;11.60;89.10
24678;DHT22;12800;53.094;8.778;2022-12-20T12:07:35;11.60;89.30
24678;DHT22;12800;53.094;8.778;2022-12-20T12:10:00;11.50;89.50
24678;DHT22;12800;53.094;8.778;2022-12-20T12:12:32;11.60;90.00
24678;DHT22;12800;53.094;8.778;2022-12-20T12:15:04;11.60;90.10
24678;DHT22;12800;53.094;8.778;2022-12-20T12:22:57;11.60;90.30
24678;DHT22;12800;53.094;8.778;2022-12-20T12:25:26;11.60;90.40
24678;DHT22;12800;53.094;8.778;2022-12-20T12:27:51;11.60;90.40
24678;DHT22;12800;53.094;8.778;2022-12-20T12:30:17;11.60;90.50
24678;DHT22;12800;53.094;8.778;2022-12-20T12:32:52;11.50;90.50
24678;DHT22;12800;53.094;8.778;2022-12-20T12:36:01;11.50;90.60
24678;DHT22;12800;53.094;8.778;2022-12-20T12:38:46;11.50;90.60
24678;DHT22;12800;53.094;8.778;2022-12-20T12:41:46;11.50;90.70
24678;DHT22;12800;53.094;8.778;2022-12-20T12:47:32;11.50;90.80
24678;DHT22;12800;53.094;8.778;2022-12-20T12:50:00;11.50;90.80
24678;DHT22;12800;53.094;8.778;2022-12-20T12:52:49;11.50;90.80
24678;DHT22;12800;53.094;8.778;2022-12-20T13:00:51;11.40;90.90
24678;DHT22;12800;53.094;8.778;2022-12-20T13:08:50;11.40;91.10
24678;DHT22;12800;53.094;8.778;2022-12-20T13:11:35;11.40;91.10
24678;DHT22;12800;53.094;8.778;2022-12-20T13:16:43;11.40;91.10
24678;DHT22;12800;53.094;8.778;2022-12-20T13:19:33;11.40;91.10
24678;DHT22;12800;53.094;8.778;2022-12-20T13:24:52;11.30;91.20
24678;DHT22;12800;53.094;8.778;2022-12-20T13:38:08;11.20;91.50
24678;DHT22;12800;53.094;8.778;2022-12-20T13:40:47;11.20;91.60
24678;DHT22;12800;53.094;8.778;2022-12-20T13:48:40;11.20;91.70
24678;DHT22;12800;53.094;8.778;2022-12-20T13:51:06;11.30;91.80
24678;DHT22;12800;53.094;8.778;2022-12-20T13:53:33;11.30;91.80
24678;DHT22;12800;53.094;8.778;2022-12-20T13:57:04;11.30;91.80
24678;DHT22;12800;53.094;8.778;2022-12-20T13:59:12;11.30;91.90
24678;DHT22;12800;53.094;8.778;2022-12-20T14:01:50;11.30;91.90
24678;DHT22;12800;53.094;8.778;2022-12-20T14:04:18;11.30;91.90
24678;DHT22;12800;53.094;8.778;2022-12-20T14:06:52;11.30;92.00
24678;DHT22;12800;53.094;8.778;2022-12-20T14:09:32;11.20;91.90
24678;DHT22;12800;53.094;8.778;2022-12-20T14:12:16;11.20;92.00
24678;DHT22;12800;53.094;8.778;2022-12-20T14:14:43;11.20;91.90
24678;DHT22;12800;53.094;8.778;2022-12-20T14:17:16;11.20;92.00
24678;DHT22;12800;53.094;8.778;2022-12-20T14:19:42;11.20;92.00
24678;DHT22;12800;53.094;8.778;2022-12-20T14:22:10;11.20;92.00
24678;DHT22;12800;53.094;8.778;2022-12-20T14:24:39;11.20;92.00
24678;DHT22;12800;53.094;8.778;2022-12-20T14:27:10;11.20;92.00
24678;DHT22;12800;53.094;8.778;2022-12-20T14:29:39;11.20;92.00
24678;DHT22;12800;53.094;8.778;2022-12-20T14:32:05;11.20;92.00
24678;DHT22;12800;53.094;8.778;2022-12-20T14:34:32;11.10;91.90
24678;DHT22;12800;53.094;8.778;2022-12-20T14:37:26;11.10;91.80
24678;DHT22;12800;53.094;8.778;2022-12-20T14:40:03;11.10;91.80
24678;DHT22;12800;53.094;8.778;2022-12-20T14:42:33;11.10;91.80
24678;DHT22;12800;53.094;8.778;2022-12-20T14:45:23;11.10;91.90
24678;DHT22;12800;53.094;8.778;2022-12-20T14:48:04;11.10;91.90
24678;DHT22;12800;53.094;8.778;2022-12-20T14:50:33;11.10;91.90
24678;DHT22;12800;53.094;8.778;2022-12-20T14:53:00;11.10;91.90
24678;DHT22;12800;53.094;8.778;2022-12-20T14:55:33;11.10;91.90
24678;DHT22;12800;53.094;8.778;2022-12-20T14:58:05;11.00;91.80
24678;DHT22;12800;53.094;8.778;2022-12-20T15:00:55;11.00;91.80
24678;DHT22;12800;53.094;8.778;2022-12-20T15:03:22;11.00;91.80
24678;DHT22;12800;53.094;8.778;2022-12-20T15:05:58;11.00;91.80
24678;DHT22;12800;53.094;8.778;2022-12-20T15:08:26;11.00;91.90
24678;DHT22;12800;53.094;8.778;2022-12-20T15:10:55;11.00;91.90
24678;DHT22;12800;53.094;8.778;2022-12-20T15:13:31;11.00;92.00
24678;DHT22;12800;53.094;8.778;2022-12-20T15:15:59;11.00;91.90
24678;DHT22;12800;53.094;8.778;2022-12-20T15:18:25;11.00;92.00
24678;DHT22;12800;53.094;8.778;2022-12-20T15:21:00;11.00;92.00
24678;DHT22;12800;53.094;8.778;2022-12-20T15:23:27;11.00;92.00
24678;DHT22;12800;53.094;8.778;2022-12-20T15:25:52;11.00;92.10
24678;DHT22;12800;53.094;8.778;2022-12-20T15:28:20;11.00;92.10
24678;DHT22;12800;53.094;8.778;2022-12-20T15:30:47;11.00;92.10
24678;DHT22;12800;53.094;8.778;2022-12-20T15:33:21;11.00;92.10
24678;DHT22;12800;53.094;8.778;2022-12-20T15:35:47;11.00;92.20
24678;DHT22;12800;53.094;8.778;2022-12-20T15:38:15;11.00;92.20
24678;DHT22;12800;53.094;8.778;2022-12-20T15:40:42;11.00;92.20
24678;DHT22;12800;53.094;8.778;2022-12-20T15:43:12;11.00;92.30
24678;DHT22;12800;53.094;8.778;2022-12-20T15:45:40;11.10;92.20
24678;DHT22;12800;53.094;8.778;2022-12-20T15:48:21;11.00;92.20
24678;DHT22;12800;53.094;8.778;2022-12-20T15:50:52;11.00;92.20
24678;DHT22;12800;53.094;8.778;2022-12-20T15:53:21;11.00;92.30
24678;DHT22;12800;53.094;8.778;2022-12-20T15:55:52;11.00;92.30
24678;DHT22;12800;53.094;8.778;2022-12-20T15:58:18;11.00;92.30
24678;DHT22;12800;53.094;8.778;2022-12-20T16:00:43;11.10;92.30
24678;DHT22;12800;53.094;8.778;2022-12-20T16:03:18;11.10;92.40
24678;DHT22;12800;53.094;8.778;2022-12-20T16:05:46;11.10;92.40
24678;DHT22;12800;53.094;8.778;2022-12-20T16:08:11;11.10;92.40
24678;DHT22;12800;53.094;8.778;2022-12-20T16:10:37;11.10;92.40
24678;DHT22;12800;53.094;8.778;2022-12-20T16:13:03;11.10;92.40
24678;DHT22;12800;53.094;8.778;2022-12-20T16:15:29;11.10;92.40
24678;DHT22;12800;53.094;8.778;2022-12-20T16:17:55;11.10;92.30
24678;DHT22;12800;53.094;8.778;2022-12-20T16:20:20;11.10;92.40
24678;DHT22;12800;53.094;8.778;2022-12-20T16:22:46;11.10;92.40
24678;DHT22;12800;53.094;8.778;2022-12-20T16:25:33;11.10;92.40
24678;DHT22;12800;53.094;8.778;2022-12-20T16:27:59;11.10;92.80
24678;DHT22;12800;53.094;8.778;2022-12-20T16:30:25;11.10;92.40
24678;DHT22;12800;53.094;8.778;2022-12-20T16:32:51;11.10;92.40
24678;DHT22;12800;53.094;8.778;2022-12-20T16:35:35;11.10;92.40
24678;DHT22;12800;53.094;8.778;2022-12-20T16:38:04;11.10;92.30
24678;DHT22;12800;53.094;8.778;2022-12-20T16:40:31;11.10;92.30
24678;DHT22;12800;53.094;8.778;2022-12-20T16:42:58;11.10;92.30
24678;DHT22;12800;53.094;8.778;2022-12-20T16:45:29;11.10;92.30
24678;DHT22;12800;53.094;8.778;2022-12-20T16:47:55;11.10;92.30
24678;DHT22;12800;53.094;8.778;2022-12-20T16:50:22;11.10;92.40
24678;DHT22;12800;53.094;8.778;2022-12-20T16:52:49;11.10;92.40
24678;DHT22;12800;53.094;8.778;2022-12-20T16:55:25;11.10;92.40
24678;DHT22;12800;53.094;8.778;2022-12-20T16:57:52;11.10;92.50
24678;DHT22;12800;53.094;8.778;2022-12-20T17:00:23;11.10;92.70
24678;DHT22;12800;53.094;8.778;2022-12-20T17:02:50;11.10;92.60
24678;DHT22;12800;53.094;8.778;2022-12-20T17:05:28;11.10;92.60
24678;DHT22;12800;53.094;8.778;2022-12-20T17:07:54;11.10;92.60
24678;DHT22;12800;53.094;8.778;2022-12-20T17:10:21;11.10;92.60
24678;DHT22;12800;53.094;8.778;2022-12-20T17:12:46;11.10;92.60
24678;DHT22;12800;53.094;8.778;2022-12-20T17:15:30;11.10;92.60
24678;DHT22;12800;53.094;8.778;2022-12-20T17:17:56;11.10;92.70
24678;DHT22;12800;53.094;8.778;2022-12-20T17:20:23;11.10;92.70
24678;DHT22;12800;53.094;8.778;2022-12-20T17:22:54;11.10;92.70
24678;DHT22;12800;53.094;8.778;2022-12-20T17:25:24;11.00;92.70
24678;DHT22;12800;53.094;8.778;2022-12-20T17:27:50;11.00;92.70